createdAt,value
2022-08-29T00:01:39.666Z,22.88
2022-08-29T00:04:08.083Z,21.43
2022-08-29T00:06:36.473Z,27.60
2022-08-29T00:09:05.094Z,28.80
2022-08-29T00:11:33.516Z,19.48
2022-08-29T00:14:01.914Z,24.63
2022-08-29T00:16:30.412Z,32.97
2022-08-29T00:19:00.324Z,27.13
2022-08-29T00:21:28.748Z,24.00
2022-08-29T00:23:57.119Z,25.20
2022-08-29T00:26:26.640Z,26.57
2022-08-29T00:28:58.576Z,29.70
2022-08-29T00:31:29.475Z,23.42
2022-08-29T00:33:58.935Z,23.60
2022-08-29T00:36:30.453Z,21.17
2022-08-29T00:38:59.095Z,23.13
2022-08-29T00:41:27.550Z,18.80
2022-08-29T00:43:56.009Z,22.73
2022-08-29T00:46:37.654Z,20.90
2022-08-29T00:49:08.768Z,23.73
2022-08-29T00:51:38.513Z,19.97
2022-08-29T00:54:10.023Z,17.90
2022-08-29T00:56:39.221Z,20.73
2022-08-29T00:59:09.071Z,15.77
2022-08-29T01:01:37.634Z,20.13
2022-08-29T01:04:24.931Z,22.47
2022-08-29T01:06:54.989Z,23.03
2022-08-29T01:09:23.728Z,21.27
2022-08-29T01:12:10.272Z,21.40
2022-08-29T01:14:38.919Z,19.63
2022-08-29T01:17:09.871Z,19.57
2022-08-29T01:19:43.108Z,18.17
2022-08-29T01:22:18.478Z,18.87
2022-08-29T01:24:50.875Z,22.57
2022-08-29T01:27:19.981Z,20.93
2022-08-29T01:29:49.101Z,20.87
2022-08-29T01:32:17.617Z,17.73
2022-08-29T01:34:48.767Z,21.67
2022-08-29T01:37:17.702Z,15.73
2022-08-29T01:39:46.598Z,14.97
2022-08-29T01:42:17.550Z,17.77
2022-08-29T01:44:50.141Z,14.27
2022-08-29T01:47:21.487Z,14.13
2022-08-29T01:49:52.326Z,15.73
2022-08-29T01:52:20.714Z,17.20
2022-08-29T01:54:49.701Z,16.97
2022-08-29T01:57:19.855Z,17.73
2022-08-29T01:59:48.651Z,21.77
2022-08-29T02:02:19.636Z,14.23
2022-08-29T02:04:48.976Z,16.17
2022-08-29T02:07:18.692Z,16.77
2022-08-29T02:09:47.677Z,14.83
2022-08-29T02:12:17.598Z,24.53
2022-08-29T02:14:47.393Z,14.70
2022-08-29T02:17:15.778Z,18.47
2022-08-29T02:19:44.455Z,13.87
2022-08-29T02:22:13.003Z,17.20
2022-08-29T02:24:41.586Z,31.00
2022-08-29T02:27:10.511Z,28.50
2022-08-29T02:29:39.369Z,21.17
2022-08-29T02:32:11.940Z,19.83
2022-08-29T02:34:43.939Z,19.37
2022-08-29T02:37:13.944Z,15.83
2022-08-29T02:39:42.337Z,14.90
2022-08-29T02:42:10.696Z,35.83
2022-08-29T02:44:39.072Z,21.90
2022-08-29T02:47:09.659Z,19.03
2022-08-29T02:49:39.549Z,17.53
2022-08-29T02:52:08.634Z,18.30
2022-08-29T02:54:37.576Z,16.50
2022-08-29T02:57:06.162Z,15.43
2022-08-29T02:59:34.571Z,14.30
2022-08-29T03:02:03.030Z,16.00
2022-08-29T03:04:32.867Z,14.87
2022-08-29T03:07:03.527Z,17.97
2022-08-29T03:09:31.903Z,19.33
2022-08-29T03:12:00.347Z,13.97
2022-08-29T03:14:28.742Z,16.63
2022-08-29T03:16:57.167Z,15.17
2022-08-29T03:19:26.116Z,20.30
2022-08-29T03:21:55.883Z,19.17
2022-08-29T03:24:27.215Z,14.47
2022-08-29T03:26:56.557Z,18.87
2022-08-29T03:29:25.663Z,19.00
2022-08-29T03:31:58.213Z,14.70
2022-08-29T03:34:26.636Z,17.03
2022-08-29T03:36:56.841Z,18.90
2022-08-29T03:39:25.268Z,16.63
2022-08-29T03:41:53.719Z,14.70
2022-08-29T03:44:22.124Z,15.30
2022-08-29T03:46:50.515Z,16.17
2022-08-29T03:49:18.988Z,17.70
2022-08-29T03:51:47.371Z,15.27
2022-08-29T03:54:17.223Z,18.93
2022-08-29T03:56:46.125Z,12.70
2022-08-29T03:59:14.556Z,15.97
2022-08-29T04:01:47.687Z,15.20
2022-08-29T04:04:37.428Z,14.10
2022-08-29T04:07:06.604Z,18.80
2022-08-29T04:09:36.412Z,20.17
2022-08-29T04:12:04.979Z,14.97
2022-08-29T04:14:33.605Z,17.67
2022-08-29T04:17:04.266Z,14.53
2022-08-29T04:19:33.296Z,15.50
2022-08-29T04:22:01.655Z,17.47
2022-08-29T04:24:31.600Z,22.57
2022-08-29T04:27:01.490Z,20.50
2022-08-29T04:29:30.013Z,21.37
2022-08-29T04:31:58.452Z,21.87
2022-08-29T04:34:27.626Z,56.67
2022-08-29T04:36:55.997Z,25.80
2022-08-29T04:39:24.396Z,16.60
2022-08-29T04:41:55.777Z,27.37
2022-08-29T04:44:25.536Z,29.53
2022-08-29T04:46:53.947Z,24.40
2022-08-29T04:49:23.449Z,13.47
2022-08-29T04:51:54.939Z,14.30
2022-08-29T04:54:23.322Z,28.43
2022-08-29T04:56:51.713Z,14.20
2022-08-29T04:59:27.399Z,12.97
2022-08-29T05:02:00.324Z,11.37
2022-08-29T05:04:28.747Z,15.37
2022-08-29T05:06:57.159Z,20.63
2022-08-29T05:09:25.531Z,20.00
2022-08-29T05:11:53.875Z,20.17
2022-08-29T05:14:22.324Z,21.30
2022-08-29T05:16:52.157Z,12.33
2022-08-29T05:19:20.559Z,22.73
2022-08-29T05:21:49.471Z,9.80
2022-08-29T05:24:17.928Z,11.37
2022-08-29T05:26:47.062Z,10.63
2022-08-29T05:29:15.575Z,24.40
2022-08-29T05:31:45.395Z,10.47
2022-08-29T05:34:33.929Z,16.57
2022-08-29T05:37:03.897Z,23.80
2022-08-29T05:39:32.821Z,15.13
2022-08-29T05:42:01.193Z,12.20
2022-08-29T05:44:34.712Z,14.03
2022-08-29T05:47:04.357Z,17.80
2022-08-29T05:49:34.091Z,18.07
2022-08-29T05:52:02.490Z,18.90
2022-08-29T05:54:30.913Z,18.13
2022-08-29T05:56:59.362Z,13.03
2022-08-29T05:59:27.822Z,18.50
2022-08-29T06:01:56.210Z,14.23
2022-08-29T06:04:24.928Z,11.37
2022-08-29T06:06:54.745Z,20.83
2022-08-29T06:09:23.149Z,14.03
2022-08-29T06:11:53.171Z,17.17
2022-08-29T06:14:21.989Z,18.90
2022-08-29T06:16:50.367Z,17.03
2022-08-29T06:19:18.769Z,17.27
2022-08-29T06:21:47.416Z,12.70
2022-08-29T06:24:17.495Z,17.30
2022-08-29T06:26:46.334Z,25.33
2022-08-29T06:29:16.053Z,15.00
2022-08-29T06:31:44.411Z,17.13
2022-08-29T06:34:12.809Z,22.57
2022-08-29T06:36:41.207Z,16.53
2022-08-29T06:39:10.557Z,28.00
2022-08-29T06:41:41.221Z,29.05
2022-08-29T06:44:09.957Z,17.65
2022-08-29T06:46:39.395Z,28.08
2022-08-29T06:49:09.224Z,22.10
2022-08-29T06:51:38.110Z,20.20
2022-08-29T06:54:07.812Z,21.42
2022-08-29T06:56:37.338Z,24.17
2022-08-29T06:59:07.222Z,23.27
2022-08-29T07:01:36.354Z,30.23
2022-08-29T07:04:05.066Z,30.67
2022-08-29T07:06:33.616Z,23.00
2022-08-29T07:09:02.067Z,26.92
2022-08-29T07:11:31.566Z,30.98
2022-08-29T07:14:00.784Z,30.80
2022-08-29T07:16:31.431Z,30.00
2022-08-29T07:18:59.921Z,23.77
2022-08-29T07:21:28.481Z,26.15
2022-08-29T07:23:57.470Z,24.90
2022-08-29T07:26:28.615Z,27.35
2022-08-29T07:28:58.303Z,23.30
2022-08-29T07:31:30.806Z,29.23
2022-08-29T07:34:02.800Z,28.35
2022-08-29T07:36:31.839Z,24.92
2022-08-29T07:39:00.426Z,30.65
2022-08-29T07:41:28.857Z,29.02
2022-08-29T07:43:57.269Z,34.95
2022-08-29T07:46:26.905Z,32.38
2022-08-29T07:48:55.537Z,28.13
2022-08-29T07:51:25.808Z,31.00
2022-08-29T07:53:54.877Z,28.88
2022-08-29T07:56:24.773Z,32.05
2022-08-29T07:58:53.412Z,31.77
2022-08-29T08:01:22.502Z,25.17
2022-08-29T08:03:51.298Z,26.02
2022-08-29T08:06:22.319Z,25.95
2022-08-29T08:08:52.456Z,21.65
2022-08-29T08:11:21.960Z,28.73
2022-08-29T08:13:50.531Z,21.38
2022-08-29T08:16:20.626Z,27.23
2022-08-29T08:18:49.717Z,26.20
2022-08-29T08:21:18.161Z,24.55
2022-08-29T08:23:46.675Z,27.60
2022-08-29T08:26:17.259Z,21.50
2022-08-29T08:28:45.814Z,22.85
2022-08-29T08:31:15.992Z,21.15
2022-08-29T08:33:44.618Z,25.17
2022-08-29T08:36:17.135Z,26.23
2022-08-29T08:38:45.917Z,24.30
2022-08-29T08:41:23.911Z,26.42
2022-08-29T08:43:57.142Z,24.80
2022-08-29T08:46:32.727Z,22.27
2022-08-29T08:49:02.260Z,21.35
2022-08-29T08:51:32.248Z,21.05
2022-08-29T08:54:01.198Z,19.40
2022-08-29T08:56:33.724Z,19.08
2022-08-29T08:59:07.153Z,21.25
2022-08-29T09:01:37.286Z,14.73
2022-08-29T09:04:14.116Z,16.15
2022-08-29T09:06:47.463Z,17.45
2022-08-29T09:09:19.391Z,15.80
2022-08-29T09:11:55.298Z,15.30
2022-08-29T09:14:29.400Z,16.80
2022-08-29T09:17:00.540Z,12.70
2022-08-29T09:19:29.113Z,14.60
2022-08-29T09:22:01.126Z,12.50
2022-08-29T09:24:34.093Z,13.00
2022-08-29T09:27:05.778Z,13.10
2022-08-29T09:29:34.794Z,15.50
2022-08-29T09:32:11.232Z,12.88
2022-08-29T09:35:06.931Z,14.57
2022-08-29T09:37:31.267Z,16.88
2022-08-29T09:40:02.565Z,12.35
2022-08-29T09:42:34.084Z,13.98
2022-08-29T09:45:04.957Z,11.07
2022-08-29T09:47:34.111Z,15.00
2022-08-29T09:50:08.174Z,12.77
2022-08-29T09:52:37.247Z,12.13
2022-08-29T09:55:20.336Z,12.43
2022-08-29T09:57:53.901Z,14.40
2022-08-29T10:00:27.253Z,12.25
2022-08-29T10:02:56.947Z,11.02
2022-08-29T10:05:36.821Z,10.07
2022-08-29T10:08:06.508Z,14.02
2022-08-29T10:10:36.234Z,12.43
2022-08-29T10:13:10.165Z,12.63
2022-08-29T10:15:51.213Z,10.75
2022-08-29T10:18:23.975Z,12.30
2022-08-29T10:20:54.261Z,15.77
2022-08-29T10:23:25.999Z,12.32
2022-08-29T10:25:54.670Z,11.50
2022-08-29T10:28:27.721Z,11.23
2022-08-29T10:30:58.916Z,12.85
2022-08-29T10:33:33.558Z,10.02
2022-08-29T10:36:07.021Z,8.93
2022-08-29T10:38:41.959Z,11.20
2022-08-29T10:41:17.220Z,11.85
2022-08-29T10:43:53.746Z,9.45
2022-08-29T10:46:32.891Z,9.38
2022-08-29T10:49:03.919Z,8.73
2022-08-29T10:51:34.809Z,11.45
2022-08-29T10:54:07.550Z,9.85
2022-08-29T10:56:40.571Z,7.80
2022-08-29T10:59:14.102Z,9.63
2022-08-29T11:01:44.122Z,9.13
2022-08-29T11:04:18.680Z,10.00
2022-08-29T11:06:57.492Z,10.55
2022-08-29T11:09:29.535Z,9.82
2022-08-29T11:12:04.122Z,10.93
2022-08-29T11:14:36.954Z,8.07
2022-08-29T11:17:06.413Z,9.93
2022-08-29T11:19:43.980Z,7.78
2022-08-29T11:22:17.803Z,7.63
2022-08-29T11:24:47.379Z,7.63
2022-08-29T11:27:23.914Z,8.02
2022-08-29T11:29:58.024Z,8.18
2022-08-29T11:32:28.834Z,9.10
2022-08-29T11:35:07.793Z,11.95
2022-08-29T11:37:46.351Z,11.25
2022-08-29T11:40:20.007Z,9.63
2022-08-29T11:43:12.102Z,8.18
2022-08-29T11:45:44.041Z,12.80
2022-08-29T11:48:20.499Z,9.55
2022-08-29T11:50:49.363Z,10.75
2022-08-29T11:53:33.676Z,6.68
2022-08-29T11:56:20.863Z,8.52
2022-08-29T11:58:50.380Z,8.50
2022-08-29T12:01:33.896Z,8.38
2022-08-29T12:04:04.969Z,8.80
2022-08-29T12:06:37.890Z,10.63
2022-08-29T12:09:24.730Z,12.80
2022-08-29T12:12:12.648Z,15.85
2022-08-29T12:14:42.252Z,11.90
2022-08-29T12:17:12.390Z,10.88
2022-08-29T12:19:49.505Z,9.75
2022-08-29T12:22:35.860Z,9.77
2022-08-29T12:25:25.255Z,12.73
2022-08-29T12:28:01.421Z,15.00
2022-08-29T12:30:30.606Z,10.40
2022-08-29T12:33:06.035Z,11.02
2022-08-29T12:35:43.393Z,10.82
2022-08-29T12:38:18.860Z,10.60
2022-08-29T12:40:52.428Z,12.82
2022-08-29T12:43:30.214Z,12.82
2022-08-29T12:45:59.110Z,13.15
2022-08-29T12:48:30.336Z,11.70
2022-08-29T12:51:00.831Z,11.52
2022-08-29T12:53:33.321Z,12.80
2022-08-29T12:56:02.359Z,12.00
2022-08-29T12:58:41.031Z,13.20
2022-08-29T13:01:24.657Z,11.02
2022-08-29T13:03:57.068Z,11.55
2022-08-29T13:06:27.413Z,10.15
2022-08-29T13:08:55.801Z,7.55
2022-08-29T13:11:25.712Z,9.32
2022-08-29T13:14:04.942Z,14.65
2022-08-29T13:16:33.764Z,9.18
2022-08-29T13:19:11.453Z,10.65
2022-08-29T13:21:41.491Z,9.90
2022-08-29T13:24:12.608Z,9.70
2022-08-29T13:26:50.706Z,10.05
2022-08-29T13:29:36.509Z,11.23
2022-08-29T13:32:13.070Z,14.02
2022-08-29T13:35:00.225Z,12.60
2022-08-29T13:37:31.771Z,12.50
2022-08-29T13:40:20.230Z,10.00
2022-08-29T13:42:51.572Z,9.25
2022-08-29T13:45:24.400Z,7.60
2022-08-29T13:47:55.099Z,10.70
2022-08-29T13:50:24.251Z,10.30
2022-08-29T13:52:55.172Z,14.02
2022-08-29T13:55:23.642Z,12.05
2022-08-29T13:57:53.603Z,10.23
2022-08-29T14:00:32.300Z,9.45
2022-08-29T14:03:05.450Z,9.98
2022-08-29T14:05:35.250Z,10.70
2022-08-29T14:08:05.474Z,8.48
2022-08-29T14:10:34.004Z,9.60
2022-08-29T14:13:02.685Z,7.82
2022-08-29T14:15:31.137Z,9.10
2022-08-29T14:17:59.877Z,11.05
2022-08-29T14:20:28.239Z,9.80
2022-08-29T14:22:56.860Z,8.32
2022-08-29T14:25:26.640Z,9.05
2022-08-29T14:27:55.443Z,9.75
2022-08-29T14:30:25.649Z,9.68
2022-08-29T14:32:54.091Z,9.98
2022-08-29T14:35:26.588Z,9.40
2022-08-29T14:38:00.821Z,9.15
2022-08-29T14:40:32.253Z,8.82
2022-08-29T14:43:01.144Z,10.68
2022-08-29T14:45:30.368Z,10.95
2022-08-29T14:47:58.969Z,8.68
2022-08-29T14:50:27.607Z,11.10
2022-08-29T14:52:56.069Z,12.38
2022-08-29T14:55:26.672Z,9.93
2022-08-29T14:57:56.521Z,8.52
2022-08-29T15:00:25.936Z,10.32
2022-08-29T15:02:54.438Z,8.60
2022-08-29T15:05:23.214Z,8.13
2022-08-29T15:07:51.995Z,12.60
2022-08-29T15:10:21.836Z,12.90
2022-08-29T15:12:50.206Z,8.98
2022-08-29T15:15:28.292Z,13.43
2022-08-29T15:17:56.789Z,10.73
2022-08-29T15:20:46.177Z,11.50
2022-08-29T15:23:14.059Z,22.92
2022-08-29T15:25:45.081Z,16.20
2022-08-29T15:28:20.886Z,10.80
2022-08-29T15:30:50.687Z,5.78
2022-08-29T15:33:19.183Z,8.75
2022-08-29T15:35:47.585Z,8.57
2022-08-29T15:38:16.137Z,7.93
2022-08-29T15:40:44.740Z,8.38
2022-08-29T15:43:13.506Z,10.45
2022-08-29T15:45:42.009Z,7.88
2022-08-29T15:48:11.885Z,9.10
2022-08-29T15:50:43.079Z,6.93
2022-08-29T15:53:11.513Z,10.25
2022-08-29T15:55:44.216Z,8.38
2022-08-29T15:58:13.321Z,8.00
2022-08-29T16:00:42.000Z,7.13
2022-08-29T16:03:12.566Z,7.13
2022-08-29T16:05:41.274Z,9.85
2022-08-29T16:08:11.147Z,6.22
2022-08-29T16:10:46.543Z,6.97
2022-08-29T16:13:15.219Z,8.18
2022-08-29T16:15:43.614Z,6.70
2022-08-29T16:18:13.434Z,8.73
2022-08-29T16:20:41.889Z,6.95
2022-08-29T16:23:11.391Z,8.07
2022-08-29T16:25:40.199Z,6.50
2022-08-29T16:28:11.523Z,9.93
2022-08-29T16:30:46.011Z,6.93
2022-08-29T16:33:16.359Z,8.45
2022-08-29T16:35:45.054Z,8.88
2022-08-29T16:38:16.546Z,10.40
2022-08-29T16:40:45.371Z,10.07
2022-08-29T16:43:14.554Z,10.15
2022-08-29T16:45:43.058Z,10.50
2022-08-29T16:48:14.843Z,8.82
2022-08-29T16:50:47.525Z,9.27
2022-08-29T16:53:16.051Z,10.50
2022-08-29T16:55:44.440Z,7.65
2022-08-29T16:58:30.728Z,8.70
2022-08-29T17:00:59.183Z,6.93
2022-08-29T17:03:27.679Z,8.77
2022-08-29T17:05:57.717Z,8.35
2022-08-29T17:08:25.299Z,11.30
2022-08-29T17:10:52.583Z,11.18
2022-08-29T17:13:19.884Z,10.63
2022-08-29T17:15:47.187Z,8.43
2022-08-29T17:18:16.718Z,8.13
2022-08-29T17:20:46.406Z,8.40
2022-08-29T17:23:16.535Z,15.65
2022-08-29T17:25:45.592Z,13.00
2022-08-29T17:28:25.004Z,11.55
2022-08-29T17:30:53.970Z,41.28
2022-08-29T17:33:26.008Z,7.75
2022-08-29T17:35:54.451Z,8.63
2022-08-29T17:38:24.427Z,9.73
2022-08-29T17:40:58.406Z,6.93
2022-08-29T17:43:29.756Z,9.23
2022-08-29T17:45:58.603Z,8.95
2022-08-29T17:48:27.050Z,7.07
2022-08-29T17:50:55.452Z,7.47
2022-08-29T17:53:25.539Z,9.05
2022-08-29T17:55:53.970Z,7.93
2022-08-29T17:58:23.257Z,9.02
2022-08-29T18:00:52.338Z,8.88
2022-08-29T18:03:20.773Z,9.45
2022-08-29T18:05:49.123Z,10.48
2022-08-29T18:08:17.641Z,13.65
2022-08-29T18:10:47.551Z,9.82
2022-08-29T18:13:20.974Z,8.70
2022-08-29T18:15:50.580Z,9.95
2022-08-29T18:18:21.201Z,11.25
2022-08-29T18:20:49.584Z,9.18
2022-08-29T18:23:17.938Z,8.88
2022-08-29T18:25:47.867Z,10.05
2022-08-29T18:28:16.438Z,8.43
2022-08-29T18:30:45.068Z,9.43
2022-08-29T18:33:13.515Z,10.32
2022-08-29T18:35:41.943Z,9.82
2022-08-29T18:38:10.491Z,9.95
2022-08-29T18:40:40.019Z,13.07
2022-08-29T18:43:11.256Z,8.80
2022-08-29T18:45:39.883Z,9.65
2022-08-29T18:48:08.912Z,8.90
2022-08-29T18:50:37.552Z,7.90
2022-08-29T18:53:11.277Z,12.30
2022-08-29T18:55:40.342Z,11.25
2022-08-29T18:58:13.733Z,11.80
2022-08-29T19:00:42.737Z,9.60
2022-08-29T19:03:11.785Z,11.25
2022-08-29T19:05:43.061Z,9.40
2022-08-29T19:08:11.700Z,9.88
2022-08-29T19:10:40.172Z,12.73
2022-08-29T19:13:09.092Z,13.13
2022-08-29T19:15:41.339Z,9.27
2022-08-29T19:18:13.215Z,10.20
2022-08-29T19:20:59.093Z,11.43
2022-08-29T19:23:27.689Z,13.50
2022-08-29T19:25:56.170Z,11.00
2022-08-29T19:28:24.845Z,13.20
2022-08-29T19:30:55.454Z,11.93
2022-08-29T19:33:23.830Z,12.75
2022-08-29T19:36:02.200Z,11.25
2022-08-29T19:38:33.793Z,14.38
2022-08-29T19:41:02.623Z,11.95
2022-08-29T19:43:36.691Z,12.00
2022-08-29T19:46:10.175Z,11.93
2022-08-29T19:48:45.253Z,12.02
2022-08-29T19:51:21.121Z,12.23
2022-08-29T19:53:50.010Z,12.18
2022-08-29T19:56:18.517Z,9.68
2022-08-29T19:58:46.989Z,13.80
2022-08-29T20:01:19.704Z,11.23
2022-08-29T20:03:51.293Z,10.43
2022-08-29T20:06:20.908Z,12.50
2022-08-29T20:08:52.442Z,13.35
2022-08-29T20:11:25.723Z,15.50
2022-08-29T20:13:56.832Z,15.05
2022-08-29T20:16:28.145Z,14.82
2022-08-29T20:18:59.445Z,11.85
2022-08-29T20:21:28.700Z,11.07
2022-08-29T20:23:58.199Z,11.90
2022-08-29T20:26:27.633Z,15.38
2022-08-29T20:28:56.072Z,14.85
2022-08-29T20:31:24.480Z,15.57
2022-08-29T20:33:54.381Z,14.25
2022-08-29T20:36:41.730Z,16.08
2022-08-29T20:39:11.321Z,14.45
2022-08-29T20:41:39.953Z,14.35
2022-08-29T20:44:10.148Z,16.33
2022-08-29T20:46:40.603Z,13.38
2022-08-29T20:49:11.372Z,16.08
2022-08-29T20:51:43.441Z,20.08
2022-08-29T20:54:12.487Z,16.50
2022-08-29T20:56:40.916Z,17.35
2022-08-29T20:59:09.333Z,17.10
2022-08-29T21:01:38.004Z,15.02
2022-08-29T21:04:24.748Z,13.00
2022-08-29T21:06:59.750Z,19.17
2022-08-29T21:09:28.219Z,13.85
2022-08-29T21:11:59.804Z,16.23
2022-08-29T21:14:28.921Z,18.58
2022-08-29T21:16:58.789Z,17.80
2022-08-29T21:19:29.808Z,17.23
2022-08-29T21:22:00.630Z,17.85
2022-08-29T21:24:29.458Z,14.05
2022-08-29T21:27:00.550Z,16.48
2022-08-29T21:29:28.954Z,15.35
2022-08-29T21:31:57.402Z,13.45
2022-08-29T21:34:26.177Z,16.48
2022-08-29T21:36:54.575Z,14.10
2022-08-29T21:39:28.529Z,18.63
2022-08-29T21:41:57.835Z,16.50
2022-08-29T21:44:31.458Z,14.73
2022-08-29T21:47:00.007Z,18.38
2022-08-29T21:49:32.387Z,17.67
2022-08-29T21:52:01.141Z,20.10
2022-08-29T21:54:30.885Z,14.98
2022-08-29T21:56:59.440Z,16.95
2022-08-29T21:59:28.760Z,16.08
2022-08-29T22:01:57.998Z,15.30
2022-08-29T22:04:28.166Z,19.15
2022-08-29T22:06:58.072Z,18.08
2022-08-29T22:09:26.705Z,16.48
2022-08-29T22:11:57.200Z,14.15
2022-08-29T22:14:46.796Z,14.63
2022-08-29T22:17:14.744Z,18.60
2022-08-29T22:19:43.142Z,17.33
2022-08-29T22:22:11.539Z,16.77
2022-08-29T22:24:40.021Z,15.38
2022-08-29T22:27:09.733Z,19.98
2022-08-29T22:29:38.216Z,15.02
2022-08-29T22:32:06.749Z,14.85
2022-08-29T22:34:35.436Z,13.63
2022-08-29T22:37:03.794Z,15.43
2022-08-29T22:39:32.169Z,19.15
2022-08-29T22:42:01.108Z,16.83
2022-08-29T22:47:19.913Z,22.75
2022-08-29T22:49:48.296Z,18.15
2022-08-29T22:52:16.669Z,17.58
2022-08-29T22:54:45.070Z,18.42
2022-08-29T22:57:14.663Z,19.63
2022-08-29T22:59:44.674Z,20.92
2022-08-29T23:02:13.490Z,18.10
2022-08-29T23:04:42.643Z,18.58
2022-08-29T23:07:12.131Z,19.83
2022-08-29T23:09:44.139Z,19.52
2022-08-29T23:12:13.099Z,18.48
2022-08-29T23:14:41.915Z,18.55
2022-08-29T23:17:11.615Z,22.27
2022-08-29T23:19:41.064Z,15.50
2022-08-29T23:22:10.101Z,19.15
2022-08-29T23:24:53.903Z,16.40
2022-08-29T23:27:28.900Z,17.42
2022-08-29T23:29:58.121Z,18.65
2022-08-29T23:32:28.107Z,18.65
2022-08-29T23:34:56.651Z,19.83
2022-08-29T23:37:25.215Z,17.27
2022-08-29T23:39:53.623Z,17.33
2022-08-29T23:42:21.998Z,17.60
2022-08-29T23:44:50.513Z,17.30
2022-08-29T23:47:21.468Z,17.35
2022-08-29T23:49:52.036Z,17.85
2022-08-29T23:52:20.455Z,18.48
2022-08-29T23:54:48.889Z,17.80
2022-08-29T23:57:17.293Z,17.48
